sensor_id;sensor_type;location;lat;lon;timestamp;temperature;humidity
34833;DHT22;55941;50.800;4.342;2023-03-24T00:02:19;12.70;99.90
34833;DHT22;55941;50.800;4.342;2023-03-24T00:04:48;12.60;99.90
34833;DHT22;55941;50.800;4.342;2023-03-24T00:07:15;12.60;99.90
34833;DHT22;55941;50.800;4.342;2023-03-24T00:09:42;12.60;99.90
34833;DHT22;55941;50.800;4.342;2023-03-24T00:12:10;12.60;99.90
34833;DHT22;55941;50.800;4.342;2023-03-24T00:14:37;12.70;99.90
34833;DHT22;55941;50.800;4.342;2023-03-24T00:17:04;12.60;99.90
34833;DHT22;55941;50.800;4.342;2023-03-24T00:19:31;12.60;99.90
34833;DHT22;55941;50.800;4.342;2023-03-24T00:21:59;12.60;99.90
34833;DHT22;55941;50.800;4.342;2023-03-24T00:24:25;12.70;99.90
34833;DHT22;55941;50.800;4.342;2023-03-24T00:26:52;12.70;99.90
34833;DHT22;55941;50.800;4.342;2023-03-24T00:29:22;12.70;99.90
34833;DHT22;55941;50.800;4.342;2023-03-24T00:31:49;12.70;99.90
34833;DHT22;55941;50.800;4.342;2023-03-24T00:34:18;12.70;99.90
34833;DHT22;55941;50.800;4.342;2023-03-24T00:36:47;12.70;99.90
34833;DHT22;55941;50.800;4.342;2023-03-24T00:39:14;12.80;99.90
34833;DHT22;55941;50.800;4.342;2023-03-24T00:41:42;12.80;99.90
34833;DHT22;55941;50.800;4.342;2023-03-24T00:44:13;12.90;99.90
34833;DHT22;55941;50.800;4.342;2023-03-24T00:46:49;12.90;99.90
34833;DHT22;55941;50.800;4.342;2023-03-24T00:49:27;12.90;99.90
34833;DHT22;55941;50.800;4.342;2023-03-24T00:52:16;12.90;99.90
34833;DHT22;55941;50.800;4.342;2023-03-24T00:54:45;12.90;99.90
34833;DHT22;55941;50.800;4.342;2023-03-24T00:57:12;12.90;99.90
34833;DHT22;55941;50.800;4.342;2023-03-24T00:59:39;13.00;99.90
34833;DHT22;55941;50.800;4.342;2023-03-24T01:02:13;13.00;99.90
34833;DHT22;55941;50.800;4.342;2023-03-24T01:04:40;13.00;99.90
34833;DHT22;55941;50.800;4.342;2023-03-24T01:07:09;13.00;99.90
34833;DHT22;55941;50.800;4.342;2023-03-24T01:09:36;13.00;99.90
34833;DHT22;55941;50.800;4.342;2023-03-24T01:12:03;13.20;99.90
34833;DHT22;55941;50.800;4.342;2023-03-24T01:14:32;13.20;99.90
34833;DHT22;55941;50.800;4.342;2023-03-24T01:16:58;13.30;99.90
34833;DHT22;55941;50.800;4.342;2023-03-24T01:19:25;13.30;99.90
34833;DHT22;55941;50.800;4.342;2023-03-24T01:21:50;13.30;99.90
34833;DHT22;55941;50.800;4.342;2023-03-24T01:24:20;13.30;99.90
34833;DHT22;55941;50.800;4.342;2023-03-24T01:26:46;13.30;99.90
34833;DHT22;55941;50.800;4.342;2023-03-24T01:29:12;13.30;99.90
34833;DHT22;55941;50.800;4.342;2023-03-24T01:31:38;13.40;99.90
34833;DHT22;55941;50.800;4.342;2023-03-24T01:34:04;13.40;99.90
34833;DHT22;55941;50.800;4.342;2023-03-24T01:36:30;13.40;99.90
34833;DHT22;55941;50.800;4.342;2023-03-24T01:38:56;13.50;99.90
34833;DHT22;55941;50.800;4.342;2023-03-24T01:41:27;13.70;99.90
34833;DHT22;55941;50.800;4.342;2023-03-24T01:43:56;13.70;99.90
34833;DHT22;55941;50.800;4.342;2023-03-24T01:46:23;13.70;99.90
34833;DHT22;55941;50.800;4.342;2023-03-24T01:49:00;13.70;99.90
34833;DHT22;55941;50.800;4.342;2023-03-24T01:51:34;13.70;99.90
34833;DHT22;55941;50.800;4.342;2023-03-24T01:54:18;13.70;99.90
34833;DHT22;55941;50.800;4.342;2023-03-24T01:56:49;13.70;99.90
34833;DHT22;55941;50.800;4.342;2023-03-24T01:59:21;13.60;99.90
34833;DHT22;55941;50.800;4.342;2023-03-24T02:01:47;13.60;99.90
34833;DHT22;55941;50.800;4.342;2023-03-24T02:04:14;13.60;99.90
34833;DHT22;55941;50.800;4.342;2023-03-24T02:06:43;13.60;99.90
34833;DHT22;55941;50.800;4.342;2023-03-24T02:09:11;13.60;99.90
34833;DHT22;55941;50.800;4.342;2023-03-24T02:11:38;13.60;99.90
34833;DHT22;55941;50.800;4.342;2023-03-24T02:14:06;13.40;99.90
34833;DHT22;55941;50.800;4.342;2023-03-24T02:19:40;13.30;99.90
34833;DHT22;55941;50.800;4.342;2023-03-24T02:47:03;12.20;99.90
34833;DHT22;55941;50.800;4.342;2023-03-24T02:49:41;12.20;99.90
34833;DHT22;55941;50.800;4.342;2023-03-24T02:52:27;12.10;99.90
34833;DHT22;55941;50.800;4.342;2023-03-24T02:55:27;12.10;99.90
34833;DHT22;55941;50.800;4.342;2023-03-24T02:58:10;12.00;99.90
34833;DHT22;55941;50.800;4.342;2023-03-24T03:00:51;11.90;99.90
34833;DHT22;55941;50.800;4.342;2023-03-24T03:03:31;11.90;99.90
34833;DHT22;55941;50.800;4.342;2023-03-24T03:06:11;11.90;99.90
34833;DHT22;55941;50.800;4.342;2023-03-24T03:08:41;11.90;99.90
34833;DHT22;55941;50.800;4.342;2023-03-24T03:11:13;11.90;99.90
34833;DHT22;55941;50.800;4.342;2023-03-24T03:13:53;11.90;99.90
34833;DHT22;55941;50.800;4.342;2023-03-24T03:16:34;11.80;99.90
34833;DHT22;55941;50.800;4.342;2023-03-24T03:19:24;11.70;99.90
34833;DHT22;55941;50.800;4.342;2023-03-24T03:21:57;11.60;99.90
34833;DHT22;55941;50.800;4.342;2023-03-24T03:24:29;11.50;99.90
34833;DHT22;55941;50.800;4.342;2023-03-24T03:27:05;11.40;99.90
34833;DHT22;55941;50.800;4.342;2023-03-24T03:29:43;11.40;99.90
34833;DHT22;55941;50.800;4.342;2023-03-24T03:32:19;11.40;99.90
34833;DHT22;55941;50.800;4.342;2023-03-24T03:34:55;11.40;99.90
34833;DHT22;55941;50.800;4.342;2023-03-24T03:37:44;11.40;99.90
34833;DHT22;55941;50.800;4.342;2023-03-24T03:40:21;11.50;99.90
34833;DHT22;55941;50.800;4.342;2023-03-24T03:42:52;11.50;99.90
34833;DHT22;55941;50.800;4.342;2023-03-24T03:45:24;11.50;99.90
34833;DHT22;55941;50.800;4.342;2023-03-24T03:47:56;11.50;99.90
34833;DHT22;55941;50.800;4.342;2023-03-24T03:50:29;11.40;99.90
34833;DHT22;55941;50.800;4.342;2023-03-24T03:52:55;11.30;99.90
34833;DHT22;55941;50.800;4.342;2023-03-24T03:55:23;11.30;99.90
34833;DHT22;55941;50.800;4.342;2023-03-24T03:57:49;11.30;99.90
34833;DHT22;55941;50.800;4.342;2023-03-24T04:00:18;11.40;99.90
34833;DHT22;55941;50.800;4.342;2023-03-24T04:08:27;11.40;99.90
34833;DHT22;55941;50.800;4.342;2023-03-24T04:12:02;11.30;99.90
34833;DHT22;55941;50.800;4.342;2023-03-24T04:20:04;11.10;99.90
34833;DHT22;55941;50.800;4.342;2023-03-24T04:25:29;11.10;99.90
34833;DHT22;55941;50.800;4.342;2023-03-24T04:28:22;11.20;99.90
34833;DHT22;55941;50.800;4.342;2023-03-24T04:31:03;11.20;99.90
34833;DHT22;55941;50.800;4.342;2023-03-24T04:33:46;11.20;99.90
34833;DHT22;55941;50.800;4.342;2023-03-24T04:36:42;11.20;99.90
34833;DHT22;55941;50.800;4.342;2023-03-24T04:39:18;11.10;99.90
34833;DHT22;55941;50.800;4.342;2023-03-24T04:41:50;11.10;99.90
34833;DHT22;55941;50.800;4.342;2023-03-24T04:44:19;11.10;99.90
34833;DHT22;55941;50.800;4.342;2023-03-24T04:46:50;11.20;99.90
34833;DHT22;55941;50.800;4.342;2023-03-24T04:49:20;11.10;99.90
34833;DHT22;55941;50.800;4.342;2023-03-24T04:51:55;11.10;99.90
34833;DHT22;55941;50.800;4.342;2023-03-24T04:54:23;11.10;99.90
34833;DHT22;55941;50.800;4.342;2023-03-24T04:56:54;11.00;99.90
34833;DHT22;55941;50.800;4.342;2023-03-24T04:59:21;10.90;99.90
34833;DHT22;55941;50.800;4.342;2023-03-24T05:01:50;11.00;99.90
34833;DHT22;55941;50.800;4.342;2023-03-24T05:04:22;11.10;99.90
34833;DHT22;55941;50.800;4.342;2023-03-24T05:06:48;11.00;99.90
34833;DHT22;55941;50.800;4.342;2023-03-24T05:09:18;11.10;99.90
34833;DHT22;55941;50.800;4.342;2023-03-24T05:11:49;11.20;99.90
34833;DHT22;55941;50.800;4.342;2023-03-24T05:14:21;11.10;99.90
34833;DHT22;55941;50.800;4.342;2023-03-24T05:16:48;11.10;99.90
34833;DHT22;55941;50.800;4.342;2023-03-24T05:19:17;11.10;99.90
34833;DHT22;55941;50.800;4.342;2023-03-24T05:21:45;11.00;99.90
34833;DHT22;55941;50.800;4.342;2023-03-24T05:24:15;11.10;99.90
34833;DHT22;55941;50.800;4.342;2023-03-24T05:26:40;11.00;99.90
34833;DHT22;55941;50.800;4.342;2023-03-24T05:29:06;11.10;99.90
34833;DHT22;55941;50.800;4.342;2023-03-24T05:31:32;11.10;99.90
34833;DHT22;55941;50.800;4.342;2023-03-24T05:34:01;11.10;99.90
34833;DHT22;55941;50.800;4.342;2023-03-24T05:36:26;11.10;99.90
34833;DHT22;55941;50.800;4.342;2023-03-24T05:38:55;11.10;99.90
34833;DHT22;55941;50.800;4.342;2023-03-24T05:41:22;10.90;99.90
34833;DHT22;55941;50.800;4.342;2023-03-24T05:43:50;11.00;99.90
34833;DHT22;55941;50.800;4.342;2023-03-24T05:46:17;10.90;99.90
34833;DHT22;55941;50.800;4.342;2023-03-24T05:48:44;10.80;99.90
34833;DHT22;55941;50.800;4.342;2023-03-24T05:51:13;10.70;99.90
34833;DHT22;55941;50.800;4.342;2023-03-24T05:53:38;10.80;99.90
34833;DHT22;55941;50.800;4.342;2023-03-24T05:56:04;10.80;99.90
34833;DHT22;55941;50.800;4.342;2023-03-24T05:58:39;10.70;99.90
34833;DHT22;55941;50.800;4.342;2023-03-24T06:01:07;10.60;99.90
34833;DHT22;55941;50.800;4.342;2023-03-24T06:03:36;10.60;99.90
34833;DHT22;55941;50.800;4.342;2023-03-24T06:06:07;10.60;99.90
34833;DHT22;55941;50.800;4.342;2023-03-24T06:08:37;10.50;99.90
34833;DHT22;55941;50.800;4.342;2023-03-24T06:11:04;10.60;99.90
34833;DHT22;55941;50.800;4.342;2023-03-24T06:13:31;10.60;99.90
34833;DHT22;55941;50.800;4.342;2023-03-24T06:15:57;10.60;99.90
34833;DHT22;55941;50.800;4.342;2023-03-24T06:18:26;10.80;99.90
34833;DHT22;55941;50.800;4.342;2023-03-24T06:20:55;10.90;99.90
34833;DHT22;55941;50.800;4.342;2023-03-24T06:23:27;10.90;99.90
34833;DHT22;55941;50.800;4.342;2023-03-24T06:25:55;11.00;99.90
34833;DHT22;55941;50.800;4.342;2023-03-24T06:28:24;11.00;99.90
34833;DHT22;55941;50.800;4.342;2023-03-24T06:30:56;11.00;99.90
34833;DHT22;55941;50.800;4.342;2023-03-24T06:33:23;11.10;99.90
34833;DHT22;55941;50.800;4.342;2023-03-24T06:35:52;11.10;99.90
34833;DHT22;55941;50.800;4.342;2023-03-24T06:38:18;11.10;99.90
34833;DHT22;55941;50.800;4.342;2023-03-24T06:40:44;11.00;99.90
34833;DHT22;55941;50.800;4.342;2023-03-24T06:43:10;10.90;99.90
34833;DHT22;55941;50.800;4.342;2023-03-24T06:45:36;10.80;99.90
34833;DHT22;55941;50.800;4.342;2023-03-24T06:48:03;10.80;99.90
34833;DHT22;55941;50.800;4.342;2023-03-24T06:50:30;10.90;99.90
34833;DHT22;55941;50.800;4.342;2023-03-24T06:52:59;10.80;99.90
34833;DHT22;55941;50.800;4.342;2023-03-24T06:55:25;10.90;99.90
34833;DHT22;55941;50.800;4.342;2023-03-24T06:57:51;10.80;99.90
34833;DHT22;55941;50.800;4.342;2023-03-24T07:00:18;10.80;99.90
34833;DHT22;55941;50.800;4.342;2023-03-24T07:02:45;11.00;99.90
34833;DHT22;55941;50.800;4.342;2023-03-24T07:05:10;11.10;99.90
34833;DHT22;55941;50.800;4.342;2023-03-24T07:07:37;11.20;99.90
34833;DHT22;55941;50.800;4.342;2023-03-24T07:10:06;11.30;99.90
34833;DHT22;55941;50.800;4.342;2023-03-24T07:12:33;11.20;99.90
34833;DHT22;55941;50.800;4.342;2023-03-24T07:14:59;11.30;99.90
34833;DHT22;55941;50.800;4.342;2023-03-24T07:17:24;11.40;99.90
34833;DHT22;55941;50.800;4.342;2023-03-24T07:19:50;11.20;99.90
34833;DHT22;55941;50.800;4.342;2023-03-24T07:22:17;10.90;99.90
34833;DHT22;55941;50.800;4.342;2023-03-24T07:24:42;10.90;99.90
34833;DHT22;55941;50.800;4.342;2023-03-24T07:27:08;10.90;99.90
34833;DHT22;55941;50.800;4.342;2023-03-24T07:29:34;11.00;99.90
34833;DHT22;55941;50.800;4.342;2023-03-24T07:32:00;11.20;99.90
34833;DHT22;55941;50.800;4.342;2023-03-24T07:34:30;11.30;99.90
34833;DHT22;55941;50.800;4.342;2023-03-24T07:36:56;11.30;99.90
34833;DHT22;55941;50.800;4.342;2023-03-24T07:39:23;11.40;99.90
34833;DHT22;55941;50.800;4.342;2023-03-24T07:41:48;11.50;99.90
34833;DHT22;55941;50.800;4.342;2023-03-24T07:44:14;11.50;99.90
34833;DHT22;55941;50.800;4.342;2023-03-24T07:46:40;11.60;99.90
34833;DHT22;55941;50.800;4.342;2023-03-24T07:49:06;11.60;99.90
34833;DHT22;55941;50.800;4.342;2023-03-24T07:51:32;11.50;99.90
34833;DHT22;55941;50.800;4.342;2023-03-24T07:53:57;11.60;99.90
34833;DHT22;55941;50.800;4.342;2023-03-24T07:56:23;11.50;99.90
34833;DHT22;55941;50.800;4.342;2023-03-24T07:58:49;11.50;99.90
34833;DHT22;55941;50.800;4.342;2023-03-24T08:01:15;11.60;99.90
34833;DHT22;55941;50.800;4.342;2023-03-24T08:03:41;11.60;99.90
34833;DHT22;55941;50.800;4.342;2023-03-24T08:06:07;11.60;99.90
34833;DHT22;55941;50.800;4.342;2023-03-24T08:08:34;11.60;99.90
34833;DHT22;55941;50.800;4.342;2023-03-24T08:11:00;11.60;99.90
34833;DHT22;55941;50.800;4.342;2023-03-24T08:13:26;11.70;99.90
34833;DHT22;55941;50.800;4.342;2023-03-24T08:15:52;11.70;99.90
34833;DHT22;55941;50.800;4.342;2023-03-24T08:18:22;11.70;99.90
34833;DHT22;55941;50.800;4.342;2023-03-24T08:20:49;11.70;99.90
34833;DHT22;55941;50.800;4.342;2023-03-24T08:23:18;11.80;99.90
34833;DHT22;55941;50.800;4.342;2023-03-24T08:25:44;11.90;99.90
34833;DHT22;55941;50.800;4.342;2023-03-24T08:28:12;11.90;99.90
34833;DHT22;55941;50.800;4.342;2023-03-24T08:30:38;12.00;99.90
34833;DHT22;55941;50.800;4.342;2023-03-24T08:33:10;12.20;99.90
34833;DHT22;55941;50.800;4.342;2023-03-24T08:35:36;12.20;99.90
34833;DHT22;55941;50.800;4.342;2023-03-24T08:38:06;12.20;99.90
34833;DHT22;55941;50.800;4.342;2023-03-24T08:40:33;12.20;99.90
34833;DHT22;55941;50.800;4.342;2023-03-24T08:43:01;12.20;99.90
34833;DHT22;55941;50.800;4.342;2023-03-24T08:45:31;12.20;99.90
34833;DHT22;55941;50.800;4.342;2023-03-24T08:48:01;12.20;99.90
34833;DHT22;55941;50.800;4.342;2023-03-24T08:50:31;12.20;99.90
34833;DHT22;55941;50.800;4.342;2023-03-24T08:52:58;12.40;99.90
34833;DHT22;55941;50.800;4.342;2023-03-24T08:55:24;12.50;99.90
34833;DHT22;55941;50.800;4.342;2023-03-24T08:57:50;12.60;99.90
34833;DHT22;55941;50.800;4.342;2023-03-24T09:00:18;12.70;99.90
34833;DHT22;55941;50.800;4.342;2023-03-24T09:02:48;12.70;99.90
34833;DHT22;55941;50.800;4.342;2023-03-24T09:05:15;12.90;99.90
34833;DHT22;55941;50.800;4.342;2023-03-24T09:07:44;12.90;99.90
34833;DHT22;55941;50.800;4.342;2023-03-24T09:10:13;12.90;99.90
34833;DHT22;55941;50.800;4.342;2023-03-24T09:12:40;13.00;99.90
34833;DHT22;55941;50.800;4.342;2023-03-24T09:15:08;13.20;99.90
34833;DHT22;55941;50.800;4.342;2023-03-24T09:17:35;13.30;99.90
34833;DHT22;55941;50.800;4.342;2023-03-24T09:20:04;13.20;99.90
34833;DHT22;55941;50.800;4.342;2023-03-24T09:22:43;13.10;99.90
34833;DHT22;55941;50.800;4.342;2023-03-24T09:25:12;13.10;99.90
34833;DHT22;55941;50.800;4.342;2023-03-24T09:27:39;13.20;99.90
34833;DHT22;55941;50.800;4.342;2023-03-24T09:30:06;13.00;99.90
34833;DHT22;55941;50.800;4.342;2023-03-24T09:32:32;13.10;99.90
34833;DHT22;55941;50.800;4.342;2023-03-24T09:35:00;13.10;99.90
34833;DHT22;55941;50.800;4.342;2023-03-24T09:37:30;13.30;99.90
34833;DHT22;55941;50.800;4.342;2023-03-24T09:39:56;13.50;99.90
34833;DHT22;55941;50.800;4.342;2023-03-24T09:42:29;13.40;99.90
34833;DHT22;55941;50.800;4.342;2023-03-24T09:44:58;13.40;99.90
34833;DHT22;55941;50.800;4.342;2023-03-24T09:50:50;13.50;99.90
34833;DHT22;55941;50.800;4.342;2023-03-24T09:53:29;13.50;99.90
34833;DHT22;55941;50.800;4.342;2023-03-24T09:56:03;13.50;99.90
34833;DHT22;55941;50.800;4.342;2023-03-24T09:58:34;13.40;99.90
34833;DHT22;55941;50.800;4.342;2023-03-24T10:01:01;13.30;99.90
34833;DHT22;55941;50.800;4.342;2023-03-24T10:03:27;13.30;99.90
34833;DHT22;55941;50.800;4.342;2023-03-24T10:08:41;13.20;99.90
34833;DHT22;55941;50.800;4.342;2023-03-24T10:16:43;13.10;99.90
34833;DHT22;55941;50.800;4.342;2023-03-24T10:22:03;13.10;99.90
34833;DHT22;55941;50.800;4.342;2023-03-24T10:24:35;13.30;99.90
34833;DHT22;55941;50.800;4.342;2023-03-24T10:29:42;13.40;99.90
34833;DHT22;55941;50.800;4.342;2023-03-24T10:32:15;13.60;99.90
34833;DHT22;55941;50.800;4.342;2023-03-24T10:34:43;13.60;99.90
34833;DHT22;55941;50.800;4.342;2023-03-24T10:37:10;13.70;99.90
34833;DHT22;55941;50.800;4.342;2023-03-24T10:39:37;13.80;99.90
34833;DHT22;55941;50.800;4.342;2023-03-24T10:42:04;13.90;99.90
34833;DHT22;55941;50.800;4.342;2023-03-24T10:44:31;13.90;99.90
34833;DHT22;55941;50.800;4.342;2023-03-24T10:47:02;14.00;99.90
34833;DHT22;55941;50.800;4.342;2023-03-24T10:49:29;14.10;99.90
34833;DHT22;55941;50.800;4.342;2023-03-24T10:52:01;14.20;99.90
34833;DHT22;55941;50.800;4.342;2023-03-24T10:54:30;14.20;99.90
34833;DHT22;55941;50.800;4.342;2023-03-24T10:59:30;14.50;99.90
34833;DHT22;55941;50.800;4.342;2023-03-24T11:04:49;14.50;99.90
34833;DHT22;55941;50.800;4.342;2023-03-24T11:07:22;14.40;99.90
34833;DHT22;55941;50.800;4.342;2023-03-24T11:12:38;14.30;99.90
34833;DHT22;55941;50.800;4.342;2023-03-24T11:15:29;14.50;99.90
34833;DHT22;55941;50.800;4.342;2023-03-24T11:17:58;14.60;99.90
34833;DHT22;55941;50.800;4.342;2023-03-24T11:20:29;14.30;99.90
34833;DHT22;55941;50.800;4.342;2023-03-24T11:25:32;14.40;99.90
34833;DHT22;55941;50.800;4.342;2023-03-24T11:28:04;14.50;99.90
34833;DHT22;55941;50.800;4.342;2023-03-24T11:30:55;14.60;99.90
34833;DHT22;55941;50.800;4.342;2023-03-24T11:33:25;14.60;99.90
34833;DHT22;55941;50.800;4.342;2023-03-24T11:35:53;14.80;99.90
34833;DHT22;55941;50.800;4.342;2023-03-24T11:38:28;15.10;99.90
34833;DHT22;55941;50.800;4.342;2023-03-24T11:40:57;15.20;99.90
34833;DHT22;55941;50.800;4.342;2023-03-24T11:43:23;15.40;99.90
34833;DHT22;55941;50.800;4.342;2023-03-24T11:46:06;15.80;99.90
34833;DHT22;55941;50.800;4.342;2023-03-24T11:48:54;16.30;99.90
34833;DHT22;55941;50.800;4.342;2023-03-24T11:51:38;16.70;99.90
34833;DHT22;55941;50.800;4.342;2023-03-24T11:54:13;17.10;99.90
34833;DHT22;55941;50.800;4.342;2023-03-24T11:56:45;17.00;99.90
34833;DHT22;55941;50.800;4.342;2023-03-24T11:59:32;16.50;99.90
34833;DHT22;55941;50.800;4.342;2023-03-24T12:02:11;16.50;99.90
34833;DHT22;55941;50.800;4.342;2023-03-24T12:12:39;15.80;99.90
34833;DHT22;55941;50.800;4.342;2023-03-24T12:20:52;15.10;99.90
34833;DHT22;55941;50.800;4.342;2023-03-24T12:23:26;15.30;99.90
34833;DHT22;55941;50.800;4.342;2023-03-24T12:31:38;15.80;99.90
34833;DHT22;55941;50.800;4.342;2023-03-24T12:39:29;17.20;99.90
34833;DHT22;55941;50.800;4.342;2023-03-24T12:42:14;17.20;99.90
34833;DHT22;55941;50.800;4.342;2023-03-24T12:47:29;17.20;99.90
34833;DHT22;55941;50.800;4.342;2023-03-24T12:55:54;16.80;99.90
34833;DHT22;55941;50.800;4.342;2023-03-24T13:03:50;15.10;99.90
34833;DHT22;55941;50.800;4.342;2023-03-24T13:06:32;14.70;99.90
34833;DHT22;55941;50.800;4.342;2023-03-24T13:14:30;14.20;99.90
34833;DHT22;55941;50.800;4.342;2023-03-24T13:17:03;13.60;99.90
34833;DHT22;55941;50.800;4.342;2023-03-24T13:19:32;13.00;99.90
34833;DHT22;55941;50.800;4.342;2023-03-24T13:22:01;12.60;99.90
34833;DHT22;55941;50.800;4.342;2023-03-24T13:24:29;12.50;99.90
34833;DHT22;55941;50.800;4.342;2023-03-24T13:35:04;13.00;99.90
34833;DHT22;55941;50.800;4.342;2023-03-24T13:37:49;13.70;99.90
34833;DHT22;55941;50.800;4.342;2023-03-24T13:40:26;14.10;99.90
34833;DHT22;55941;50.800;4.342;2023-03-24T13:43:06;14.70;99.90
34833;DHT22;55941;50.800;4.342;2023-03-24T13:45:39;14.90;99.90
34833;DHT22;55941;50.800;4.342;2023-03-24T13:48:25;14.80;99.90
34833;DHT22;55941;50.800;4.342;2023-03-24T13:50:57;14.80;99.90
34833;DHT22;55941;50.800;4.342;2023-03-24T13:53:36;14.70;99.90
34833;DHT22;55941;50.800;4.342;2023-03-24T13:56:04;14.70;99.90
34833;DHT22;55941;50.800;4.342;2023-03-24T13:59:22;15.00;99.90
34833;DHT22;55941;50.800;4.342;2023-03-24T14:01:42;15.40;99.90
34833;DHT22;55941;50.800;4.342;2023-03-24T14:04:25;15.80;99.90
34833;DHT22;55941;50.800;4.342;2023-03-24T14:06:58;15.80;99.90
34833;DHT22;55941;50.800;4.342;2023-03-24T14:09:29;15.70;99.90
34833;DHT22;55941;50.800;4.342;2023-03-24T14:14:32;15.50;99.90
34833;DHT22;55941;50.800;4.342;2023-03-24T14:19:42;15.00;99.90
34833;DHT22;55941;50.800;4.342;2023-03-24T14:22:13;15.10;99.90
34833;DHT22;55941;50.800;4.342;2023-03-24T14:24:42;15.20;99.90
34833;DHT22;55941;50.800;4.342;2023-03-24T14:27:34;15.20;99.90
34833;DHT22;55941;50.800;4.342;2023-03-24T14:32:51;15.10;99.90
34833;DHT22;55941;50.800;4.342;2023-03-24T14:35:40;14.80;99.90
34833;DHT22;55941;50.800;4.342;2023-03-24T14:40:43;14.80;99.90
34833;DHT22;55941;50.800;4.342;2023-03-24T14:43:21;14.80;99.90
34833;DHT22;55941;50.800;4.342;2023-03-24T14:45:54;14.90;99.90
34833;DHT22;55941;50.800;4.342;2023-03-24T14:48:49;15.50;99.90
34833;DHT22;55941;50.800;4.342;2023-03-24T14:54:22;17.00;99.90
34833;DHT22;55941;50.800;4.342;2023-03-24T14:56:52;17.30;99.90
34833;DHT22;55941;50.800;4.342;2023-03-24T14:59:31;17.50;99.90
34833;DHT22;55941;50.800;4.342;2023-03-24T15:04:38;18.40;99.90
34833;DHT22;55941;50.800;4.342;2023-03-24T15:07:04;18.60;99.90
34833;DHT22;55941;50.800;4.342;2023-03-24T15:09:30;18.60;99.90
34833;DHT22;55941;50.800;4.342;2023-03-24T15:12:00;18.50;99.90
34833;DHT22;55941;50.800;4.342;2023-03-24T15:14:26;18.90;99.90
34833;DHT22;55941;50.800;4.342;2023-03-24T15:17:15;18.70;99.90
34833;DHT22;55941;50.800;4.342;2023-03-24T15:19:43;18.10;99.90
34833;DHT22;55941;50.800;4.342;2023-03-24T15:22:12;17.70;99.90
34833;DHT22;55941;50.800;4.342;2023-03-24T15:24:41;18.10;99.90
34833;DHT22;55941;50.800;4.342;2023-03-24T15:29:42;18.40;99.90
34833;DHT22;55941;50.800;4.342;2023-03-24T15:32:22;18.90;99.90
34833;DHT22;55941;50.800;4.342;2023-03-24T15:34:54;18.80;99.90
34833;DHT22;55941;50.800;4.342;2023-03-24T15:37:37;18.50;99.90
34833;DHT22;55941;50.800;4.342;2023-03-24T15:40:05;19.20;99.90
34833;DHT22;55941;50.800;4.342;2023-03-24T15:42:31;19.50;99.90
34833;DHT22;55941;50.800;4.342;2023-03-24T15:48:06;18.00;99.90
34833;DHT22;55941;50.800;4.342;2023-03-24T15:50:38;17.40;99.90
34833;DHT22;55941;50.800;4.342;2023-03-24T15:55:41;16.00;99.90
34833;DHT22;55941;50.800;4.342;2023-03-24T15:58:55;16.10;99.90
34833;DHT22;55941;50.800;4.342;2023-03-24T16:01:27;16.20;99.90
34833;DHT22;55941;50.800;4.342;2023-03-24T16:04:01;16.10;99.90
34833;DHT22;55941;50.800;4.342;2023-03-24T16:06:31;15.70;99.90
34833;DHT22;55941;50.800;4.342;2023-03-24T16:09:03;15.50;99.90
34833;DHT22;55941;50.800;4.342;2023-03-24T16:11:29;15.30;99.90
34833;DHT22;55941;50.800;4.342;2023-03-24T16:13:55;15.40;99.90
34833;DHT22;55941;50.800;4.342;2023-03-24T16:16:28;15.30;99.90
34833;DHT22;55941;50.800;4.342;2023-03-24T16:18:55;15.30;99.90
34833;DHT22;55941;50.800;4.342;2023-03-24T16:21:23;15.30;99.90
34833;DHT22;55941;50.800;4.342;2023-03-24T16:23:52;15.30;99.90
34833;DHT22;55941;50.800;4.342;2023-03-24T16:26:29;15.00;99.90
34833;DHT22;55941;50.800;4.342;2023-03-24T16:29:12;14.90;99.90
34833;DHT22;55941;50.800;4.342;2023-03-24T16:31:39;14.70;99.90
34833;DHT22;55941;50.800;4.342;2023-03-24T16:34:05;14.70;99.90
34833;DHT22;55941;50.800;4.342;2023-03-24T16:36:31;14.80;99.90
34833;DHT22;55941;50.800;4.342;2023-03-24T16:38:58;14.80;99.90
34833;DHT22;55941;50.800;4.342;2023-03-24T16:41:26;14.90;99.90
34833;DHT22;55941;50.800;4.342;2023-03-24T16:43:52;14.80;99.90
34833;DHT22;55941;50.800;4.342;2023-03-24T16:46:30;14.60;99.90
34833;DHT22;55941;50.800;4.342;2023-03-24T16:48:56;14.40;99.90
34833;DHT22;55941;50.800;4.342;2023-03-24T16:51:22;14.10;99.90
34833;DHT22;55941;50.800;4.342;2023-03-24T16:53:48;13.70;99.90
34833;DHT22;55941;50.800;4.342;2023-03-24T16:56:16;13.40;99.90
34833;DHT22;55941;50.800;4.342;2023-03-24T16:58:43;13.20;99.90
34833;DHT22;55941;50.800;4.342;2023-03-24T17:01:15;13.00;99.90
34833;DHT22;55941;50.800;4.342;2023-03-24T17:03:59;12.90;99.90
34833;DHT22;55941;50.800;4.342;2023-03-24T17:06:27;12.60;99.90
34833;DHT22;55941;50.800;4.342;2023-03-24T17:08:53;12.20;99.90
34833;DHT22;55941;50.800;4.342;2023-03-24T17:11:42;11.70;99.90
34833;DHT22;55941;50.800;4.342;2023-03-24T17:14:08;11.30;99.90
34833;DHT22;55941;50.800;4.342;2023-03-24T17:16:38;11.10;99.90
34833;DHT22;55941;50.800;4.342;2023-03-24T17:19:09;10.80;99.90
34833;DHT22;55941;50.800;4.342;2023-03-24T17:21:41;10.50;99.90
34833;DHT22;55941;50.800;4.342;2023-03-24T17:24:10;10.50;99.90
34833;DHT22;55941;50.800;4.342;2023-03-24T17:26:39;10.40;99.90
34833;DHT22;55941;50.800;4.342;2023-03-24T17:29:06;10.40;99.90
34833;DHT22;55941;50.800;4.342;2023-03-24T17:31:32;10.30;99.90
34833;DHT22;55941;50.800;4.342;2023-03-24T17:33:58;10.30;99.90
34833;DHT22;55941;50.800;4.342;2023-03-24T17:36:24;10.50;99.90
34833;DHT22;55941;50.800;4.342;2023-03-24T17:38:49;10.60;99.90
34833;DHT22;55941;50.800;4.342;2023-03-24T17:41:16;10.50;99.90
34833;DHT22;55941;50.800;4.342;2023-03-24T17:43:44;10.60;99.90
34833;DHT22;55941;50.800;4.342;2023-03-24T17:46:10;10.60;99.90
34833;DHT22;55941;50.800;4.342;2023-03-24T17:48:36;10.60;99.90
34833;DHT22;55941;50.800;4.342;2023-03-24T17:51:02;10.70;99.90
34833;DHT22;55941;50.800;4.342;2023-03-24T17:53:28;10.70;99.90
34833;DHT22;55941;50.800;4.342;2023-03-24T17:55:56;10.70;99.90
34833;DHT22;55941;50.800;4.342;2023-03-24T17:58:22;10.80;99.90
34833;DHT22;55941;50.800;4.342;2023-03-24T18:00:48;10.80;99.90
34833;DHT22;55941;50.800;4.342;2023-03-24T18:03:14;10.80;99.90
34833;DHT22;55941;50.800;4.342;2023-03-24T18:05:40;10.70;99.90
34833;DHT22;55941;50.800;4.342;2023-03-24T18:08:06;10.70;99.90
34833;DHT22;55941;50.800;4.342;2023-03-24T18:10:33;10.80;99.90
34833;DHT22;55941;50.800;4.342;2023-03-24T18:13:04;10.80;99.90
34833;DHT22;55941;50.800;4.342;2023-03-24T18:15:31;10.70;99.90
34833;DHT22;55941;50.800;4.342;2023-03-24T18:17:56;10.70;99.90
34833;DHT22;55941;50.800;4.342;2023-03-24T18:20:22;10.70;99.90